Time;durP1;ratioP1;P1;durP2;ratioP2;P2;SDS_P1;SDS_P2;PMS_P1;PMS_P2;Temp;Humidity;BMP_temperature;BMP_pressure;BME280_temperature;BME280_humidity;BME280_pressure;Samples;Min_cycle;Max_cycle;Signal;HPM_P1;HPM_P2
2022/04/04 00:01:03;;;;;;;;;;;5.20;96.00;;;;;;4302289;33;41715;-81
2022/04/04 00:03:30;;;;;;;;;;;5.20;96.10;;;;;;4301719;33;43287;-80
2022/04/04 00:05:58;;;;;;;;;;;5.10;96.20;;;;;;4301718;33;44183;-81
2022/04/04 00:08:25;;;;;;;;;;;5.10;96.30;;;;;;4301682;33;43924;-81
2022/04/04 00:10:52;;;;;;;;;;;5.20;96.30;;;;;;4303140;33;43858;-81
2022/04/04 00:13:19;;;;;;;;;;;5.10;96.30;;;;;;4301481;33;44322;-81
2022/04/04 00:15:47;;;;;;;;;;;5.10;96.40;;;;;;4301441;33;44157;-81
2022/04/04 00:18:14;;;;;;;;;;;5.10;96.40;;;;;;4303058;33;44124;-81
2022/04/04 00:20:41;;;;;;;;;;;5.10;96.50;;;;;;4303050;33;43935;-81
2022/04/04 00:23:12;;;;;;;;;;;5.10;96.50;;;;;;4301411;33;44168;-81
2022/04/04 00:25:40;;;;;;;;;;;5.00;96.50;;;;;;4302918;33;44051;-81
2022/04/04 00:28:07;;;;;;;;;;;5.00;96.60;;;;;;4302286;33;44342;-80
2022/04/04 00:30:34;;;;;;;;;;;5.00;96.60;;;;;;4302180;33;45566;-80
2022/04/04 00:33:01;;;;;;;;;;;5.00;96.60;;;;;;4302321;33;44240;-81
2022/04/04 00:35:29;;;;;;;;;;;5.00;96.60;;;;;;4302379;33;43470;-80
2022/04/04 00:38:00;;;;;;;;;;;5.00;96.60;;;;;;4301631;33;44254;-81
2022/04/04 00:40:28;;;;;;;;;;;5.00;96.70;;;;;;4301203;33;42986;-81
2022/04/04 00:42:55;;;;;;;;;;;5.00;96.70;;;;;;4301578;33;44152;-81
2022/04/04 00:45:25;;;;;;;;;;;5.00;96.80;;;;;;4301534;33;44195;-81
2022/04/04 00:47:52;;;;;;;;;;;5.00;96.80;;;;;;4301565;33;44472;-80
2022/04/04 00:50:25;;;;;;;;;;;5.00;96.80;;;;;;4300979;33;43059;-81
2022/04/04 00:52:52;;;;;;;;;;;5.00;96.80;;;;;;4301451;33;43266;-81
2022/04/04 00:55:19;;;;;;;;;;;5.00;96.80;;;;;;4301619;33;43968;-81
2022/04/04 00:57:47;;;;;;;;;;;5.00;96.80;;;;;;4300890;33;44861;-81
2022/04/04 01:00:17;;;;;;;;;;;5.00;96.80;;;;;;4301458;33;43861;-81
2022/04/04 01:02:44;;;;;;;;;;;5.00;96.80;;;;;;4300851;33;45106;-81
2022/04/04 01:05:11;;;;;;;;;;;4.90;96.70;;;;;;4301857;33;43013;-80
2022/04/04 01:07:39;;;;;;;;;;;5.00;96.80;;;;;;4302028;33;43884;-81
2022/04/04 01:10:08;;;;;;;;;;;4.90;96.80;;;;;;4301202;33;44411;-81
2022/04/04 01:12:35;;;;;;;;;;;4.90;96.70;;;;;;4301945;33;43445;-81
2022/04/04 01:15:03;;;;;;;;;;;4.90;96.70;;;;;;4301755;33;44130;-81
2022/04/04 01:17:30;;;;;;;;;;;4.90;96.80;;;;;;4302041;33;43309;-81
2022/04/04 01:19:58;;;;;;;;;;;4.90;96.80;;;;;;4302024;33;43351;-81
2022/04/04 01:22:25;;;;;;;;;;;4.90;96.80;;;;;;4302147;33;43929;-82
2022/04/04 01:24:52;;;;;;;;;;;4.90;96.70;;;;;;4301190;33;43473;-81
2022/04/04 01:27:19;;;;;;;;;;;4.90;96.70;;;;;;4301833;33;43032;-81
2022/04/04 01:29:47;;;;;;;;;;;4.90;96.70;;;;;;4300878;33;44215;-81
2022/04/04 01:32:14;;;;;;;;;;;4.80;96.70;;;;;;4301585;33;43226;-81
2022/04/04 01:34:41;;;;;;;;;;;4.80;96.70;;;;;;4301382;33;43519;-81
2022/04/04 01:37:08;;;;;;;;;;;4.80;96.60;;;;;;4302086;33;43586;-80
2022/04/04 01:39:35;;;;;;;;;;;4.80;96.70;;;;;;4300508;33;42644;-81
2022/04/04 01:42:02;;;;;;;;;;;4.80;96.70;;;;;;4300518;33;43811;-81
2022/04/04 01:44:30;;;;;;;;;;;4.80;96.70;;;;;;4301486;33;44157;-81
2022/04/04 01:46:58;;;;;;;;;;;4.80;96.70;;;;;;4300838;33;43895;-81
2022/04/04 01:49:25;;;;;;;;;;;4.70;96.70;;;;;;4301726;33;42705;-81
2022/04/04 01:51:52;;;;;;;;;;;4.70;96.70;;;;;;4301309;33;44300;-81
2022/04/04 01:54:19;;;;;;;;;;;4.70;96.60;;;;;;4300376;33;44109;-81
2022/04/04 01:56:46;;;;;;;;;;;4.70;96.60;;;;;;4301365;33;44817;-81
2022/04/04 01:59:13;;;;;;;;;;;4.70;96.60;;;;;;4301521;33;44163;-80
2022/04/04 02:01:41;;;;;;;;;;;4.70;96.70;;;;;;4302246;33;42226;-81
2022/04/04 02:04:10;;;;;;;;;;;4.70;96.60;;;;;;4303086;33;42902;-81
2022/04/04 02:06:38;;;;;;;;;;;4.70;96.60;;;;;;4316248;33;43563;-81
2022/04/04 02:09:05;;;;;;;;;;;4.70;96.60;;;;;;4315636;33;44212;-81
2022/04/04 02:11:32;;;;;;;;;;;4.70;96.70;;;;;;4302867;33;42700;-80
2022/04/04 02:14:02;;;;;;;;;;;4.60;96.50;;;;;;4315954;33;42636;-80
2022/04/04 02:16:29;;;;;;;;;;;4.60;96.60;;;;;;4315694;33;44219;-80
2022/04/04 02:18:56;;;;;;;;;;;4.60;96.50;;;;;;4315445;33;43288;-80
2022/04/04 02:21:23;;;;;;;;;;;4.60;96.60;;;;;;4315617;33;44052;-80
2022/04/04 02:23:51;;;;;;;;;;;4.60;97.00;;;;;;4315884;33;44194;-80
2022/04/04 02:26:20;;;;;;;;;;;4.50;96.60;;;;;;4315721;33;44269;-80
2022/04/04 02:28:48;;;;;;;;;;;4.50;96.60;;;;;;4315839;33;44243;-80
2022/04/04 02:31:15;;;;;;;;;;;4.50;96.70;;;;;;4315789;33;44877;-81
2022/04/04 02:33:42;;;;;;;;;;;4.50;96.70;;;;;;4315962;33;43405;-81
2022/04/04 02:36:09;;;;;;;;;;;4.50;96.70;;;;;;4302606;33;42821;-81
2022/04/04 02:38:36;;;;;;;;;;;4.60;96.70;;;;;;4315588;33;44736;-80
2022/04/04 02:41:04;;;;;;;;;;;4.50;96.70;;;;;;4315637;33;45473;-80
2022/04/04 02:43:32;;;;;;;;;;;4.50;96.80;;;;;;4302231;33;44290;-81
2022/04/04 02:45:59;;;;;;;;;;;4.50;96.80;;;;;;4315777;33;44035;-81
2022/04/04 02:48:26;;;;;;;;;;;4.50;96.80;;;;;;4315685;33;43914;-81
2022/04/04 02:50:53;;;;;;;;;;;4.50;96.80;;;;;;4315437;33;42732;-80
2022/04/04 02:53:20;;;;;;;;;;;4.40;96.70;;;;;;4302185;33;42906;-80
2022/04/04 02:58:33;;;;;;;;;;;4.50;96.80;;;;;;4315795;33;43038;-80
2022/04/04 03:01:03;;;;;;;;;;;4.40;96.90;;;;;;4315505;33;42992;-80
2022/04/04 03:03:30;;;;;;;;;;;4.40;96.90;;;;;;4302060;33;44195;-80
2022/04/04 03:05:57;;;;;;;;;;;4.40;96.90;;;;;;4315587;33;45748;-80
2022/04/04 03:08:24;;;;;;;;;;;4.40;96.90;;;;;;4316400;33;42857;-80
2022/04/04 03:10:51;;;;;;;;;;;4.40;96.90;;;;;;4317913;33;43050;-80
2022/04/04 03:13:18;;;;;;;;;;;4.40;96.90;;;;;;4318054;33;42862;-81
2022/04/04 03:15:46;;;;;;;;;;;4.30;96.90;;;;;;4317880;33;44472;-80
2022/04/04 03:18:13;;;;;;;;;;;4.40;96.90;;;;;;4318104;33;43711;-81
2022/04/04 03:20:40;;;;;;;;;;;4.30;96.90;;;;;;4304976;33;44053;-81
2022/04/04 03:23:07;;;;;;;;;;;4.30;96.90;;;;;;4304745;33;44618;-81
2022/04/04 03:25:34;;;;;;;;;;;4.40;97.00;;;;;;4317791;33;43284;-81
2022/04/04 03:28:01;;;;;;;;;;;4.40;97.00;;;;;;4304651;33;46111;-81
2022/04/04 03:30:29;;;;;;;;;;;4.30;97.00;;;;;;4318153;33;43298;-81
2022/04/04 03:32:59;;;;;;;;;;;4.30;97.00;;;;;;4304809;33;43315;-80
2022/04/04 03:35:27;;;;;;;;;;;4.30;97.00;;;;;;4304431;33;46188;-80
2022/04/04 03:37:55;;;;;;;;;;;4.30;97.00;;;;;;4318035;33;43238;-80
2022/04/04 03:40:23;;;;;;;;;;;4.30;97.00;;;;;;4318079;33;45836;-81
2022/04/04 03:42:51;;;;;;;;;;;4.30;97.10;;;;;;4317844;33;43042;-80
2022/04/04 03:45:19;;;;;;;;;;;4.30;97.00;;;;;;4317901;33;44158;-81
2022/04/04 03:47:47;;;;;;;;;;;4.30;97.00;;;;;;4304799;33;45047;-81
2022/04/04 03:50:14;;;;;;;;;;;4.30;97.00;;;;;;4317852;33;43928;-80
2022/04/04 03:52:42;;;;;;;;;;;4.30;97.10;;;;;;4317613;33;44824;-81
2022/04/04 03:55:11;;;;;;;;;;;4.30;97.10;;;;;;4317821;33;44248;-80
2022/04/04 03:57:40;;;;;;;;;;;4.30;97.10;;;;;;4304715;33;43030;-80
2022/04/04 04:00:08;;;;;;;;;;;4.20;97.20;;;;;;4304529;33;43941;-80
2022/04/04 04:02:35;;;;;;;;;;;4.20;97.20;;;;;;4317172;33;43178;-80
2022/04/04 04:05:03;;;;;;;;;;;4.20;97.30;;;;;;4317652;33;43932;-80
2022/04/04 04:07:30;;;;;;;;;;;4.20;97.30;;;;;;4304466;33;43562;-80
2022/04/04 04:09:58;;;;;;;;;;;4.20;97.30;;;;;;4304040;33;43761;-81
2022/04/04 04:12:25;;;;;;;;;;;4.20;97.20;;;;;;4304665;33;44300;-81
2022/04/04 04:14:52;;;;;;;;;;;4.20;97.30;;;;;;4317643;33;44205;-80
2022/04/04 04:17:22;;;;;;;;;;;4.20;97.30;;;;;;4304025;33;43880;-80
2022/04/04 04:22:35;;;;;;;;;;;4.20;97.30;;;;;;4317085;33;42733;-80
2022/04/04 04:25:04;;;;;;;;;;;4.20;97.30;;;;;;4317183;33;42001;-80
2022/04/04 04:27:31;;;;;;;;;;;4.20;97.40;;;;;;4304174;33;43152;-80
2022/04/04 04:29:58;;;;;;;;;;;4.20;97.40;;;;;;4304169;33;42614;-80
2022/04/04 04:32:25;;;;;;;;;;;4.20;97.40;;;;;;4317155;33;44702;-81
2022/04/04 04:34:53;;;;;;;;;;;4.20;97.40;;;;;;4303861;33;44210;-80
2022/04/04 04:37:23;;;;;;;;;;;4.20;97.50;;;;;;4316835;33;44213;-80
2022/04/04 04:39:50;;;;;;;;;;;4.10;97.40;;;;;;4304296;33;43288;-81
2022/04/04 04:42:17;;;;;;;;;;;4.20;97.50;;;;;;4303586;33;44900;-80
2022/04/04 04:44:45;;;;;;;;;;;4.20;97.60;;;;;;4303560;33;43783;-80
2022/04/04 04:47:14;;;;;;;;;;;4.10;97.60;;;;;;4316632;33;42909;-81
2022/04/04 04:49:41;;;;;;;;;;;4.10;97.60;;;;;;4316751;33;44182;-80
2022/04/04 04:52:08;;;;;;;;;;;4.20;97.60;;;;;;4316549;33;43905;-80
2022/04/04 04:54:35;;;;;;;;;;;4.10;97.60;;;;;;4303941;33;43902;-80
2022/04/04 04:57:02;;;;;;;;;;;4.10;97.60;;;;;;4316951;33;44195;-80
2022/04/04 04:59:29;;;;;;;;;;;4.10;97.70;;;;;;4303309;33;42677;-80
2022/04/04 05:01:56;;;;;;;;;;;4.10;97.80;;;;;;4316690;33;43252;-81
2022/04/04 05:04:24;;;;;;;;;;;4.10;97.80;;;;;;4303969;33;43479;-80
2022/04/04 05:06:51;;;;;;;;;;;4.10;97.90;;;;;;4316557;33;45855;-80
2022/04/04 05:09:18;;;;;;;;;;;4.10;98.00;;;;;;4303320;33;43091;-80
2022/04/04 05:11:47;;;;;;;;;;;4.10;97.90;;;;;;4316307;33;44195;-80
2022/04/04 05:14:17;;;;;;;;;;;4.20;98.00;;;;;;4316214;33;42710;-81
2022/04/04 05:16:48;;;;;;;;;;;4.10;98.00;;;;;;4316414;33;43907;-80
2022/04/04 05:19:25;;;;;;;;;;;4.20;98.10;;;;;;4303085;33;42702;-80
2022/04/04 05:21:52;;;;;;;;;;;4.10;98.10;;;;;;4316499;33;44351;-80
2022/04/04 05:24:19;;;;;;;;;;;4.20;98.20;;;;;;4303412;33;42703;-80
2022/04/04 05:26:46;;;;;;;;;;;4.20;98.20;;;;;;4303059;33;42512;-81
2022/04/04 05:29:17;;;;;;;;;;;4.20;98.20;;;;;;4303131;33;42749;-81
2022/04/04 05:31:47;;;;;;;;;;;4.20;98.30;;;;;;4302928;33;44305;-80
2022/04/04 05:34:14;;;;;;;;;;;4.20;98.30;;;;;;4303235;33;42399;-80
2022/04/04 05:36:41;;;;;;;;;;;4.20;98.30;;;;;;4316323;33;44017;-80
2022/04/04 05:39:08;;;;;;;;;;;4.20;98.30;;;;;;4316394;33;42335;-80
2022/04/04 05:41:38;;;;;;;;;;;4.20;98.40;;;;;;4302819;33;42650;-80
2022/04/04 05:44:06;;;;;;;;;;;4.20;98.40;;;;;;4302765;33;42356;-80
2022/04/04 05:46:33;;;;;;;;;;;4.20;98.40;;;;;;4316177;33;43390;-80
2022/04/04 05:49:00;;;;;;;;;;;4.20;98.30;;;;;;4315829;33;42623;-80
2022/04/04 05:51:28;;;;;;;;;;;4.20;98.40;;;;;;4302687;33;43509;-80
2022/04/04 05:54:09;;;;;;;;;;;4.20;98.40;;;;;;4304530;33;43537;-81
2022/04/04 05:56:38;;;;;;;;;;;4.20;98.50;;;;;;4302887;33;43134;-80
2022/04/04 05:59:06;;;;;;;;;;;4.10;98.50;;;;;;4303038;33;45048;-80
2022/04/04 06:01:33;;;;;;;;;;;4.20;98.50;;;;;;4316045;33;43193;-80
2022/04/04 06:04:00;;;;;;;;;;;4.20;98.50;;;;;;4302643;33;42665;-80
2022/04/04 06:06:27;;;;;;;;;;;4.20;98.60;;;;;;4303000;33;44052;-80
2022/04/04 06:08:55;;;;;;;;;;;4.20;98.50;;;;;;4315841;33;43824;-80
2022/04/04 06:11:22;;;;;;;;;;;4.20;98.60;;;;;;4315943;33;43495;-80
2022/04/04 06:13:49;;;;;;;;;;;4.20;98.60;;;;;;4316166;33;43308;-80
2022/04/04 06:16:18;;;;;;;;;;;4.20;98.70;;;;;;4315891;33;45104;-81
2022/04/04 06:18:46;;;;;;;;;;;4.20;98.60;;;;;;4315996;33;43045;-80
2022/04/04 06:21:15;;;;;;;;;;;4.20;98.60;;;;;;4302517;33;42663;-79
2022/04/04 06:23:42;;;;;;;;;;;4.20;98.50;;;;;;4316019;33;43897;-80
2022/04/04 06:26:13;;;;;;;;;;;4.20;98.40;;;;;;4315457;33;42935;-79
2022/04/04 06:28:40;;;;;;;;;;;4.20;98.40;;;;;;4316070;33;43562;-79
2022/04/04 06:31:07;;;;;;;;;;;4.20;98.30;;;;;;4316019;33;43359;-80
2022/04/04 06:33:34;;;;;;;;;;;4.20;98.20;;;;;;4302336;33;44030;-80
2022/04/04 06:36:04;;;;;;;;;;;4.20;98.20;;;;;;4302329;33;42552;-80
2022/04/04 06:38:31;;;;;;;;;;;4.20;98.10;;;;;;4302302;33;43360;-80
2022/04/04 06:40:58;;;;;;;;;;;4.20;98.00;;;;;;4315921;33;43211;-80
2022/04/04 06:43:25;;;;;;;;;;;4.20;97.80;;;;;;4303768;33;43330;-80
2022/04/04 06:45:52;;;;;;;;;;;4.20;97.70;;;;;;4305619;33;45198;-79
2022/04/04 06:48:21;;;;;;;;;;;4.20;97.70;;;;;;4305175;33;43736;-80
2022/04/04 06:50:48;;;;;;;;;;;4.30;97.70;;;;;;4318324;33;43690;-79
2022/04/04 06:53:15;;;;;;;;;;;4.20;97.50;;;;;;4318577;33;43423;-80
2022/04/04 06:55:44;;;;;;;;;;;4.20;97.30;;;;;;4318193;33;43930;-80
2022/04/04 06:58:11;;;;;;;;;;;4.20;97.30;;;;;;4305043;33;45329;-79
2022/04/04 07:00:39;;;;;;;;;;;4.20;97.30;;;;;;4305554;33;43403;-80
2022/04/04 07:03:08;;;;;;;;;;;4.20;97.10;;;;;;4305041;33;44055;-80
2022/04/04 07:05:36;;;;;;;;;;;4.30;97.00;;;;;;4318108;33;42247;-80
2022/04/04 07:08:04;;;;;;;;;;;4.20;97.00;;;;;;4305001;33;43758;-79
2022/04/04 07:10:32;;;;;;;;;;;4.30;97.10;;;;;;4318511;33;43107;-79
2022/04/04 07:12:59;;;;;;;;;;;4.20;97.00;;;;;;4318207;33;42640;-80
2022/04/04 07:15:26;;;;;;;;;;;4.30;96.90;;;;;;4317883;33;43455;-80
2022/04/04 07:17:53;;;;;;;;;;;4.30;96.90;;;;;;4318052;33;43057;-80
2022/04/04 07:20:20;;;;;;;;;;;4.30;96.90;;;;;;4305350;33;44323;-80
2022/04/04 07:22:47;;;;;;;;;;;4.30;96.90;;;;;;4305215;33;43926;-80
2022/04/04 07:25:14;;;;;;;;;;;4.30;96.90;;;;;;4318347;33;43524;-79
2022/04/04 07:27:43;;;;;;;;;;;4.30;96.90;;;;;;4318215;33;44298;-80
2022/04/04 07:30:11;;;;;;;;;;;4.30;97.00;;;;;;4317788;33;44188;-80
2022/04/04 07:32:38;;;;;;;;;;;4.30;97.10;;;;;;4304498;33;43315;-80
2022/04/04 07:35:07;;;;;;;;;;;4.40;97.10;;;;;;4304499;33;44135;-80
2022/04/04 07:37:34;;;;;;;;;;;4.40;97.00;;;;;;4304542;33;43562;-80
2022/04/04 07:40:01;;;;;;;;;;;4.40;97.10;;;;;;4318167;33;44009;-79
2022/04/04 07:42:28;;;;;;;;;;;4.40;97.20;;;;;;4304494;33;44036;-79
2022/04/04 07:44:56;;;;;;;;;;;4.50;97.20;;;;;;4317983;33;42664;-80
2022/04/04 07:47:23;;;;;;;;;;;4.50;97.30;;;;;;4317807;33;43940;-80
2022/04/04 07:49:50;;;;;;;;;;;4.50;97.20;;;;;;4304438;33;43149;-79
2022/04/04 07:52:17;;;;;;;;;;;4.50;97.20;;;;;;4317577;33;43303;-80
2022/04/04 07:54:45;;;;;;;;;;;4.50;97.00;;;;;;4304162;33;43247;-80
2022/04/04 07:57:12;;;;;;;;;;;4.60;97.10;;;;;;4304237;33;44800;-81
2022/04/04 07:59:39;;;;;;;;;;;4.60;97.30;;;;;;4304691;33;44144;-79
2022/04/04 08:02:06;;;;;;;;;;;4.60;96.90;;;;;;4317223;33;43215;-80
2022/04/04 08:04:33;;;;;;;;;;;4.60;96.90;;;;;;4317550;33;42665;-80
2022/04/04 08:07:00;;;;;;;;;;;4.60;96.90;;;;;;4304250;33;42273;-80
2022/04/04 08:09:27;;;;;;;;;;;4.60;97.00;;;;;;4317224;33;42790;-79
2022/04/04 08:11:55;;;;;;;;;;;4.70;96.90;;;;;;4303928;33;45352;-79
2022/04/04 08:14:23;;;;;;;;;;;4.70;96.70;;;;;;4304208;33;43047;-80
2022/04/04 08:16:50;;;;;;;;;;;4.70;96.80;;;;;;4304651;33;44192;-80
2022/04/04 08:19:18;;;;;;;;;;;4.70;96.70;;;;;;4317500;33;45232;-79
2022/04/04 08:21:45;;;;;;;;;;;4.70;96.60;;;;;;4303930;33;43474;-80
2022/04/04 08:24:13;;;;;;;;;;;4.70;96.70;;;;;;4317380;33;43940;-79
2022/04/04 08:26:40;;;;;;;;;;;4.80;96.70;;;;;;4317401;33;42969;-80
2022/04/04 08:29:09;;;;;;;;;;;4.80;96.70;;;;;;4303818;33;45028;-80
2022/04/04 08:31:39;;;;;;;;;;;4.80;96.80;;;;;;4317402;33;45098;-80
2022/04/04 08:34:06;;;;;;;;;;;4.80;96.90;;;;;;4303956;33;42763;-80
2022/04/04 08:36:39;;;;;;;;;;;4.80;96.90;;;;;;4317042;33;43860;-80
2022/04/04 08:39:07;;;;;;;;;;;4.80;96.70;;;;;;4304241;33;43406;-80
2022/04/04 08:41:35;;;;;;;;;;;4.80;96.90;;;;;;4304161;33;43866;-80
2022/04/04 08:44:03;;;;;;;;;;;4.80;96.80;;;;;;4303705;33;43230;-80
2022/04/04 08:46:30;;;;;;;;;;;4.90;96.90;;;;;;4316943;33;43186;-80
2022/04/04 08:48:58;;;;;;;;;;;4.90;96.90;;;;;;4304020;33;44766;-80
2022/04/04 08:51:26;;;;;;;;;;;4.90;96.90;;;;;;4303870;33;44153;-80
2022/04/04 08:53:54;;;;;;;;;;;4.90;97.00;;;;;;4316959;33;43197;-80
2022/04/04 08:56:24;;;;;;;;;;;4.90;96.90;;;;;;4316694;33;43818;-80
2022/04/04 08:58:52;;;;;;;;;;;4.90;97.20;;;;;;4303738;33;44258;-79
2022/04/04 09:01:19;;;;;;;;;;;5.00;97.30;;;;;;4303603;33;44074;-80
2022/04/04 09:04:05;;;;;;;;;;;4.90;97.30;;;;;;4303713;33;42417;-81
2022/04/04 09:06:45;;;;;;;;;;;5.00;97.50;;;;;;4316348;33;43465;-81
2022/04/04 09:09:17;;;;;;;;;;;5.00;97.40;;;;;;4316543;33;44753;-82
2022/04/04 09:11:50;;;;;;;;;;;5.00;97.50;;;;;;4304042;33;43463;-80
2022/04/04 09:14:20;;;;;;;;;;;5.00;97.60;;;;;;4303552;33;42969;-80
2022/04/04 09:16:54;;;;;;;;;;;5.00;97.50;;;;;;4316234;33;44282;-80
2022/04/04 09:19:31;;;;;;;;;;;5.10;97.40;;;;;;4303169;33;42508;-80
2022/04/04 09:22:03;;;;;;;;;;;5.10;97.50;;;;;;4303417;33;41911;-80
2022/04/04 09:24:45;;;;;;;;;;;5.10;97.60;;;;;;4316582;33;44295;-80
2022/04/04 09:27:13;;;;;;;;;;;5.10;97.60;;;;;;4316612;33;43321;-80
2022/04/04 09:29:46;;;;;;;;;;;5.10;97.60;;;;;;4304268;33;44178;-80
2022/04/04 09:32:15;;;;;;;;;;;5.20;97.70;;;;;;4303521;33;43567;-80
2022/04/04 09:34:54;;;;;;;;;;;5.20;97.60;;;;;;4316198;33;42436;-80
2022/04/04 09:37:23;;;;;;;;;;;5.20;97.40;;;;;;4302974;33;44240;-80
2022/04/04 09:39:51;;;;;;;;;;;5.20;97.60;;;;;;4303383;33;43843;-81
2022/04/04 09:42:38;;;;;;;;;;;5.20;97.40;;;;;;4305549;33;46176;-79
2022/04/04 09:45:06;;;;;;;;;;;5.30;97.40;;;;;;4316497;33;44189;-80
2022/04/04 09:47:52;;;;;;;;;;;5.30;97.30;;;;;;4302834;33;42313;-79
2022/04/04 09:50:29;;;;;;;;;;;5.30;97.40;;;;;;4303119;33;44545;-80
2022/04/04 09:52:57;;;;;;;;;;;5.40;97.50;;;;;;4316086;33;44299;-79
2022/04/04 09:55:31;;;;;;;;;;;5.40;97.50;;;;;;4302903;33;43150;-79
2022/04/04 09:57:59;;;;;;;;;;;5.40;97.40;;;;;;4316376;33;43877;-79
2022/04/04 10:00:34;;;;;;;;;;;5.40;97.40;;;;;;4315712;33;43059;-80
2022/04/04 10:03:03;;;;;;;;;;;5.50;97.20;;;;;;4302703;33;42607;-80
2022/04/04 10:05:30;;;;;;;;;;;5.50;97.00;;;;;;4302571;33;43206;-80
2022/04/04 10:07:57;;;;;;;;;;;5.50;96.80;;;;;;4302747;33;43004;-79
2022/04/04 10:10:26;;;;;;;;;;;5.50;96.70;;;;;;4315769;33;43343;-80
2022/04/04 10:12:53;;;;;;;;;;;5.50;96.60;;;;;;4315616;33;42760;-81
2022/04/04 10:15:21;;;;;;;;;;;5.50;96.60;;;;;;4316105;33;44064;-80
2022/04/04 10:17:49;;;;;;;;;;;5.60;96.60;;;;;;4302495;33;43535;-80
2022/04/04 10:20:17;;;;;;;;;;;5.60;96.50;;;;;;4316073;33;43844;-80
2022/04/04 10:22:45;;;;;;;;;;;5.60;96.60;;;;;;4302659;33;42275;-80
2022/04/04 10:25:13;;;;;;;;;;;5.60;96.70;;;;;;4315505;33;44247;-80
2022/04/04 10:27:44;;;;;;;;;;;5.60;96.60;;;;;;4315946;33;43553;-81
2022/04/04 10:30:11;;;;;;;;;;;5.60;96.70;;;;;;4303041;33;44303;-80
2022/04/04 10:32:56;;;;;;;;;;;5.60;96.80;;;;;;4315718;33;43469;-81
2022/04/04 10:35:25;;;;;;;;;;;5.60;96.70;;;;;;4302895;33;43812;-81
2022/04/04 10:37:56;;;;;;;;;;;5.60;96.80;;;;;;4302609;33;44632;-81
2022/04/04 10:40:24;;;;;;;;;;;5.70;97.20;;;;;;4302395;33;43395;-81
2022/04/04 10:43:00;;;;;;;;;;;5.60;97.50;;;;;;4302284;33;43975;-80
2022/04/04 10:45:30;;;;;;;;;;;5.60;97.70;;;;;;4302235;33;43960;-81
2022/04/04 10:48:07;;;;;;;;;;;5.70;97.80;;;;;;4315590;33;43466;-82
2022/04/04 10:50:41;;;;;;;;;;;5.60;98.00;;;;;;4302849;33;44203;-81
2022/04/04 10:53:09;;;;;;;;;;;5.60;98.10;;;;;;4315682;33;43304;-82
2022/04/04 10:55:36;;;;;;;;;;;5.60;98.10;;;;;;4302546;33;43505;-81
2022/04/04 10:58:13;;;;;;;;;;;5.60;98.40;;;;;;4302100;33;43418;-82
2022/04/04 11:00:57;;;;;;;;;;;5.60;98.60;;;;;;4315699;33;43493;-82
2022/04/04 11:03:38;;;;;;;;;;;5.70;99.00;;;;;;4315189;33;43488;-82
2022/04/04 11:09:18;;;;;;;;;;;5.60;99.50;;;;;;4315469;33;44916;-83
2022/04/04 11:12:12;;;;;;;;;;;5.60;99.90;;;;;;4315929;33;42719;-82
2022/04/04 11:14:43;;;;;;;;;;;5.60;99.90;;;;;;4313576;33;45352;-81
2022/04/04 11:19:46;;;;;;;;;;;5.60;99.90;;;;;;4315097;33;44942;-82
2022/04/04 11:22:15;;;;;;;;;;;5.60;99.90;;;;;;4315064;33;43294;-82
2022/04/04 11:24:42;;;;;;;;;;;5.60;99.90;;;;;;4315599;33;43342;-82
2022/04/04 11:27:10;;;;;;;;;;;5.60;99.90;;;;;;4301998;33;43894;-82
2022/04/04 11:29:38;;;;;;;;;;;5.60;99.90;;;;;;4303448;33;45005;-82
2022/04/04 11:32:07;;;;;;;;;;;5.60;99.90;;;;;;4304573;33;44214;-83
2022/04/04 11:34:37;;;;;;;;;;;5.60;99.90;;;;;;4317815;33;43052;-82
2022/04/04 11:37:04;;;;;;;;;;;5.60;99.90;;;;;;4304728;33;44435;-83
2022/04/04 11:39:32;;;;;;;;;;;5.60;99.90;;;;;;4317604;33;44171;-82
2022/04/04 11:42:07;;;;;;;;;;;5.50;99.90;;;;;;4318101;33;44359;-84
2022/04/04 11:44:37;;;;;;;;;;;5.50;99.90;;;;;;4305124;33;44042;-84
2022/04/04 11:47:06;;;;;;;;;;;5.50;99.90;;;;;;4317608;33;43395;-84
2022/04/04 11:49:37;;;;;;;;;;;5.50;99.90;;;;;;4317848;33;44254;-83
2022/04/04 11:52:06;;;;;;;;;;;5.50;99.90;;;;;;4318365;33;43953;-84
2022/04/04 11:54:40;;;;;;;;;;;5.50;99.90;;;;;;4317790;33;44084;-85
2022/04/04 11:57:07;;;;;;;;;;;5.50;99.90;;;;;;4304480;33;44126;-85
2022/04/04 11:59:40;;;;;;;;;;;5.40;99.90;;;;;;4317705;33;43248;-86
2022/04/04 12:02:08;;;;;;;;;;;5.50;99.90;;;;;;4317764;33;44792;-86
2022/04/04 12:04:36;;;;;;;;;;;5.40;99.90;;;;;;4317802;33;43011;-87
2022/04/04 12:07:04;;;;;;;;;;;5.40;99.90;;;;;;4305497;33;20037;-86
2022/04/04 12:09:32;;;;;;;;;;;5.40;99.90;;;;;;4304773;33;43579;-86
2022/04/04 12:12:00;;;;;;;;;;;5.40;99.90;;;;;;4304459;33;43524;-86
2022/04/04 12:14:32;;;;;;;;;;;5.40;99.90;;;;;;4317771;33;43485;-86
2022/04/04 12:16:59;;;;;;;;;;;5.30;99.90;;;;;;4317326;33;44344;-86
2022/04/04 12:19:27;;;;;;;;;;;5.30;99.90;;;;;;4304661;33;43022;-86
2022/04/04 12:21:54;;;;;;;;;;;5.30;99.90;;;;;;4317828;33;44286;-86
2022/04/04 12:27:08;;;;;;;;;;;5.30;99.90;;;;;;4317602;33;42942;-87
2022/04/04 12:29:42;;;;;;;;;;;5.40;99.90;;;;;;4304334;33;43336;-87
2022/04/04 12:32:14;;;;;;;;;;;5.30;99.90;;;;;;4304842;33;43839;-86
2022/04/04 12:35:13;;;;;;;;;;;5.30;99.90;;;;;;4317731;33;44927;-86
2022/04/04 12:37:42;;;;;;;;;;;5.30;99.90;;;;;;4274143;33;20005;-87
2022/04/04 12:40:13;;;;;;;;;;;5.30;99.90;;;;;;4304052;33;42786;-87
2022/04/04 12:42:40;;;;;;;;;;;5.30;99.90;;;;;;4316912;33;43898;-87
2022/04/04 12:45:08;;;;;;;;;;;5.30;99.90;;;;;;4304447;33;43352;-86
2022/04/04 12:47:51;;;;;;;;;;;5.30;99.90;;;;;;4304551;33;43938;-87
2022/04/04 12:50:21;;;;;;;;;;;5.30;99.90;;;;;;4304869;33;43902;-87
2022/04/04 12:52:58;;;;;;;;;;;5.30;99.90;;;;;;4304623;33;44747;-87
2022/04/04 12:55:26;;;;;;;;;;;5.30;99.90;;;;;;4304210;33;43181;-87
2022/04/04 12:57:54;;;;;;;;;;;5.30;99.90;;;;;;4317055;33;45112;-87
2022/04/04 13:00:27;;;;;;;;;;;5.30;99.90;;;;;;4317554;33;45246;-87
2022/04/04 13:02:56;;;;;;;;;;;5.30;99.90;;;;;;4303880;33;44135;-85
2022/04/04 13:05:24;;;;;;;;;;;5.30;99.90;;;;;;4304005;33;43961;-87
2022/04/04 13:07:55;;;;;;;;;;;5.30;99.90;;;;;;4317818;33;20006;-87
2022/04/04 13:10:28;;;;;;;;;;;5.30;99.90;;;;;;4317402;33;43504;-87
2022/04/04 13:13:08;;;;;;;;;;;5.30;99.90;;;;;;4316884;33;43457;-87
2022/04/04 13:15:39;;;;;;;;;;;5.30;99.90;;;;;;4303902;33;43897;-87
2022/04/04 13:18:09;;;;;;;;;;;5.30;99.90;;;;;;4317355;33;45748;-86
2022/04/04 13:20:36;;;;;;;;;;;5.30;99.90;;;;;;4304183;33;43039;-87
2022/04/04 13:23:09;;;;;;;;;;;5.30;99.90;;;;;;4304667;33;42655;-86
2022/04/04 13:25:40;;;;;;;;;;;5.30;99.90;;;;;;4303922;33;43511;-87
2022/04/04 13:28:09;;;;;;;;;;;5.30;99.90;;;;;;4303529;33;43354;-86
2022/04/04 13:30:37;;;;;;;;;;;5.30;99.90;;;;;;4303897;33;45066;-87
2022/04/04 13:33:05;;;;;;;;;;;5.30;99.90;;;;;;4316507;33;43001;-86
2022/04/04 13:35:33;;;;;;;;;;;5.30;99.90;;;;;;4316747;33;44219;-86
2022/04/04 13:38:00;;;;;;;;;;;5.30;99.90;;;;;;4304433;33;20006;-86
2022/04/04 13:40:33;;;;;;;;;;;5.30;99.90;;;;;;4304722;33;44289;-87
2022/04/04 13:43:01;;;;;;;;;;;5.30;99.90;;;;;;4316545;33;42506;-86
2022/04/04 13:45:28;;;;;;;;;;;5.30;99.90;;;;;;4316377;33;43852;-86
2022/04/04 13:47:55;;;;;;;;;;;5.40;99.90;;;;;;4316692;33;44037;-85
2022/04/04 13:50:22;;;;;;;;;;;5.30;99.90;;;;;;4303393;33;46410;-85
2022/04/04 13:52:50;;;;;;;;;;;5.30;99.90;;;;;;4302754;33;43202;-86
2022/04/04 13:55:17;;;;;;;;;;;5.30;99.90;;;;;;4302895;33;44959;-86
2022/04/04 13:57:44;;;;;;;;;;;5.30;99.90;;;;;;4302649;33;45024;-85
2022/04/04 14:00:11;;;;;;;;;;;5.30;99.90;;;;;;4303267;33;44247;-85
2022/04/04 14:02:40;;;;;;;;;;;5.30;99.90;;;;;;4302673;33;43936;-84
2022/04/04 14:05:12;;;;;;;;;;;5.40;99.90;;;;;;4302698;33;44172;-85
2022/04/04 14:07:59;;;;;;;;;;;5.40;99.90;;;;;;4316464;33;44876;-85
2022/04/04 14:10:26;;;;;;;;;;;5.30;99.90;;;;;;4315755;33;45116;-85
2022/04/04 14:12:53;;;;;;;;;;;5.30;99.90;;;;;;4316162;33;42624;-85
2022/04/04 14:15:21;;;;;;;;;;;5.40;99.90;;;;;;4315669;33;42560;-86
2022/04/04 14:17:48;;;;;;;;;;;5.30;99.90;;;;;;4302635;33;42977;-85
2022/04/04 14:20:16;;;;;;;;;;;5.30;99.90;;;;;;4315742;33;43496;-86
2022/04/04 14:22:44;;;;;;;;;;;5.30;99.90;;;;;;4302605;33;43241;-85
2022/04/04 14:25:11;;;;;;;;;;;5.30;99.90;;;;;;4302858;33;44190;-85
2022/04/04 14:27:44;;;;;;;;;;;5.30;99.90;;;;;;4303679;33;45598;-85
2022/04/04 14:30:11;;;;;;;;;;;5.40;99.90;;;;;;4302851;33;45039;-85
2022/04/04 14:32:43;;;;;;;;;;;5.40;99.90;;;;;;4315431;33;44564;-84
2022/04/04 14:35:10;;;;;;;;;;;5.40;99.90;;;;;;4303323;33;44322;-86
2022/04/04 14:37:37;;;;;;;;;;;5.40;99.90;;;;;;4302548;33;43183;-86
2022/04/04 14:40:05;;;;;;;;;;;5.40;99.90;;;;;;4302877;33;42881;-86
2022/04/04 14:42:32;;;;;;;;;;;5.40;99.90;;;;;;4302363;33;44890;-84
2022/04/04 14:44:59;;;;;;;;;;;5.40;99.90;;;;;;4315831;33;43965;-85
2022/04/04 14:47:31;;;;;;;;;;;5.40;99.90;;;;;;4303540;33;45776;-86
2022/04/04 14:49:59;;;;;;;;;;;5.40;99.90;;;;;;4316030;33;43991;-86
2022/04/04 14:52:26;;;;;;;;;;;5.40;99.90;;;;;;4303028;33;44788;-86
2022/04/04 14:54:53;;;;;;;;;;;5.40;99.90;;;;;;4315724;33;43331;-87